Axel, Colorado
Current Conditions -  °F | °C
As of 6:53 AM on Sunday 23 Nov 2014 (Local Time) from KEEO Reporting Station
Overcast Overcast  
Wind Chill: 23°   Ceiling: 4900
Heat Index: 23°   Visibility: 10mi
Dew Point: 19°   Wind: 3mph
Humidity: 85%   Direction: 90°E
Pressure: 29.89"   Gusts: NA
Location:  40.0347°N, 107.628°W
Report Text: KEEO 231353Z AUTO 09003KT 10SM SCT037 BKN049 OVC085 M05/M07 A2989 RMK AO2 SLP128 T10501072
Loading
Personal Weather Stations






























Interactive Weather Map New forecast layout! Learn more

10-Day Weather Forecast

Advertisements
Track Severe Weather on mobile